Time;durP1;ratioP1;P1;durP2;ratioP2;P2;SDS_P1;SDS_P2;PMS_P1;PMS_P2;Temp;Humidity;BMP_temperature;BMP_pressure;BME280_temperature;BME280_humidity;BME280_pressure;Samples;Min_cycle;Max_cycle;Signal;HPM_P1;HPM_P2
2022/09/08 03:00:39;;;;;;;1.00;0.60;;;19.10;87.50;;;;;;6011859;23;20390;-77
2022/09/08 03:03:06;;;;;;;0.70;0.60;;;19.10;88.00;;;;;;4938180;29;20472;-74
2022/09/08 03:05:33;;;;;;;0.70;0.57;;;18.90;88.50;;;;;;4938831;29;20935;-74
2022/09/08 03:08:02;;;;;;;0.80;0.70;;;19.00;89.00;;;;;;4939067;29;20497;-74
2022/09/08 03:10:29;;;;;;;0.80;0.60;;;19.00;88.10;;;;;;4938921;29;20522;-74
2022/09/08 03:12:56;;;;;;;0.70;0.70;;;19.10;88.30;;;;;;4938967;29;20506;-74
2022/09/08 03:15:24;;;;;;;0.70;0.60;;;19.20;86.70;;;;;;4940336;29;20451;-74
2022/09/08 03:17:53;;;;;;;0.70;0.50;;;19.10;87.80;;;;;;4938876;29;20448;-73
2022/09/08 03:20:20;;;;;;;0.70;0.50;;;19.00;87.60;;;;;;4938857;29;20547;-74
2022/09/08 03:22:47;;;;;;;0.70;0.60;;;19.00;87.60;;;;;;4938723;29;20527;-74
2022/09/08 03:25:14;;;;;;;0.70;0.60;;;19.00;87.30;;;;;;4938841;29;20494;-74
2022/09/08 03:27:41;;;;;;;0.70;0.60;;;18.90;87.60;;;;;;4938606;29;20579;-74
2022/09/08 03:30:10;;;;;;;0.70;0.60;;;18.90;88.10;;;;;;4938658;29;20519;-73
2022/09/08 03:32:39;;;;;;;0.70;0.60;;;18.80;87.60;;;;;;4938231;29;21062;-74
2022/09/08 03:35:09;;;;;;;0.70;0.60;;;18.90;87.90;;;;;;4938648;29;20448;-74
2022/09/08 03:37:38;;;;;;;0.70;0.60;;;19.10;87.60;;;;;;4938550;29;20448;-74
2022/09/08 03:40:05;;;;;;;0.70;0.50;;;19.10;86.60;;;;;;4938427;29;20515;-74
2022/09/08 03:42:34;;;;;;;0.70;0.60;;;19.10;86.80;;;;;;4938416;29;20480;-74
2022/09/08 03:45:01;;;;;;;0.70;0.53;;;18.90;87.60;;;;;;4938388;29;20551;-74
2022/09/08 03:47:28;;;;;;;0.80;0.70;;;18.90;87.10;;;;;;4938230;29;20587;-73
2022/09/08 03:49:54;;;;;;;0.70;0.60;;;18.70;86.90;;;;;;4938373;29;20448;-74
2022/09/08 03:52:22;;;;;;;0.80;0.67;;;18.50;88.40;;;;;;4938476;29;20531;-73
2022/09/08 03:54:50;;;;;;;0.80;0.70;;;18.30;89.00;;;;;;4938443;29;20461;-74
2022/09/08 03:57:21;;;;;;;0.70;0.60;;;18.20;89.60;;;;;;4937582;29;20888;-74
2022/09/08 03:59:48;;;;;;;0.70;0.50;;;18.00;90.10;;;;;;4937889;29;20927;-74
2022/09/08 04:02:15;;;;;;;0.70;0.60;;;18.00;90.40;;;;;;4937753;29;20483;-74
2022/09/08 04:04:42;;;;;;;0.70;0.50;;;18.00;90.60;;;;;;4938051;29;20515;-74
2022/09/08 04:07:09;;;;;;;0.90;0.70;;;18.00;90.60;;;;;;4937972;29;20480;-73
2022/09/08 04:09:38;;;;;;;0.70;0.60;;;18.20;90.60;;;;;;4937963;29;20511;-74
2022/09/08 04:12:05;;;;;;;0.70;0.50;;;18.30;89.90;;;;;;4937957;29;20468;-73
2022/09/08 04:14:32;;;;;;;0.70;0.60;;;18.30;89.60;;;;;;4938008;29;20863;-73
2022/09/08 04:16:59;;;;;;;0.70;0.60;;;18.00;90.00;;;;;;4937541;29;20550;-74
2022/09/08 04:19:26;;;;;;;0.70;0.60;;;17.90;90.60;;;;;;4937781;29;20515;-73
2022/09/08 04:21:52;;;;;;;0.93;0.60;;;17.80;91.10;;;;;;4937713;29;20519;-73
2022/09/08 04:24:19;;;;;;;1.33;0.60;;;17.80;91.50;;;;;;4937389;29;20456;-73
2022/09/08 04:26:47;;;;;;;0.70;0.50;;;17.70;91.40;;;;;;4937634;29;20487;-74
2022/09/08 04:29:14;;;;;;;0.70;0.50;;;17.70;91.60;;;;;;4937720;29;20543;-74
2022/09/08 04:31:41;;;;;;;0.70;0.60;;;17.70;91.50;;;;;;4937184;29;20849;-73
2022/09/08 04:34:08;;;;;;;0.70;0.60;;;17.60;91.60;;;;;;4937539;29;20500;-73
2022/09/08 04:36:35;;;;;;;0.70;0.50;;;17.50;92.50;;;;;;4937470;29;20448;-74
2022/09/08 04:39:02;;;;;;;0.70;0.60;;;17.50;92.40;;;;;;4937491;29;20455;-73
2022/09/08 04:41:30;;;;;;;0.70;0.53;;;17.50;92.50;;;;;;4937290;29;20479;-73
2022/09/08 04:44:00;;;;;;;0.70;0.70;;;17.40;92.60;;;;;;4937283;29;20449;-73
2022/09/08 04:46:27;;;;;;;0.70;0.53;;;17.50;93.10;;;;;;4937289;29;20467;-74
2022/09/08 04:48:54;;;;;;;1.10;0.60;;;17.60;92.40;;;;;;4936907;29;21077;-74
2022/09/08 04:51:21;;;;;;;0.80;0.60;;;17.50;92.30;;;;;;4937105;29;20531;-74
2022/09/08 04:53:49;;;;;;;0.70;0.50;;;17.50;92.40;;;;;;4936855;29;21030;-74
2022/09/08 04:56:16;;;;;;;0.70;0.50;;;17.50;92.70;;;;;;4937169;29;20459;-74
2022/09/08 04:58:45;;;;;;;0.73;0.60;;;17.60;92.60;;;;;;4937082;29;20455;-74
2022/09/08 05:01:19;;;;;;;0.70;0.60;;;17.60;92.50;;;;;;4936903;29;20539;-74
2022/09/08 05:03:46;;;;;;;0.70;0.60;;;17.70;91.40;;;;;;4937053;29;20444;-74
2022/09/08 05:06:15;;;;;;;0.80;0.60;;;17.50;92.00;;;;;;4936720;29;20550;-74
2022/09/08 05:08:43;;;;;;;0.70;0.60;;;17.50;92.20;;;;;;4936270;29;20547;-74
2022/09/08 05:11:10;;;;;;;0.70;0.50;;;17.40;92.90;;;;;;4936816;29;20478;-74
2022/09/08 05:13:37;;;;;;;0.77;0.60;;;17.30;93.40;;;;;;4936783;29;20490;-74
2022/09/08 05:16:06;;;;;;;1.43;0.57;;;17.40;93.00;;;;;;4936832;29;20468;-73
2022/09/08 05:18:34;;;;;;;0.70;0.50;;;17.60;93.10;;;;;;4936813;29;20444;-74
2022/09/08 05:21:00;;;;;;;0.77;0.57;;;17.80;91.80;;;;;;4936641;29;20468;-73
2022/09/08 05:23:27;;;;;;;0.70;0.50;;;17.60;92.20;;;;;;4936699;29;20463;-74
2022/09/08 05:25:58;;;;;;;0.70;0.50;;;17.70;92.10;;;;;;4936626;29;20452;-74
2022/09/08 05:28:26;;;;;;;0.70;0.60;;;17.60;92.30;;;;;;4936287;29;20475;-74
2022/09/08 05:30:53;;;;;;;0.70;0.60;;;17.70;92.40;;;;;;4936202;29;20576;-73
2022/09/08 05:33:20;;;;;;;0.70;0.50;;;17.60;92.00;;;;;;4936569;29;20821;-74
2022/09/08 05:35:49;;;;;;;0.80;0.60;;;17.60;92.80;;;;;;4936508;29;20487;-74
2022/09/08 05:38:16;;;;;;;0.70;0.60;;;17.40;92.80;;;;;;4936515;29;20448;-74
2022/09/08 05:40:43;;;;;;;0.70;0.57;;;17.40;93.70;;;;;;4936376;29;20491;-74
2022/09/08 05:43:09;;;;;;;0.70;0.60;;;17.60;92.80;;;;;;4936369;29;21026;-74
2022/09/08 05:45:36;;;;;;;0.70;0.60;;;17.50;92.90;;;;;;4936373;29;20459;-74
2022/09/08 05:48:04;;;;;;;0.70;0.57;;;17.80;93.00;;;;;;4936269;29;20496;-75
2022/09/08 05:50:34;;;;;;;0.70;0.50;;;18.00;92.00;;;;;;4936210;29;20488;-75
2022/09/08 05:53:52;;;;;;;0.70;0.60;;;18.20;91.20;;;;;;4936356;29;20511;-74
2022/09/08 05:56:21;;;;;;;0.70;0.60;;;18.30;90.80;;;;;;4928549;29;20463;-75
2022/09/08 05:58:52;;;;;;;0.70;0.60;;;18.30;90.20;;;;;;4936231;29;20547;-75
2022/09/08 06:01:19;;;;;;;0.70;0.53;;;18.20;90.10;;;;;;4935842;29;20555;-75
2022/09/08 06:03:50;;;;;;;0.70;0.53;;;18.30;90.30;;;;;;4936222;29;20490;-75
2022/09/08 06:06:17;;;;;;;0.70;0.50;;;18.40;90.20;;;;;;4936124;29;20439;-75
2022/09/08 06:08:44;;;;;;;0.80;0.60;;;18.50;89.60;;;;;;4936077;29;20487;-74
2022/09/08 06:11:11;;;;;;;0.70;0.50;;;18.30;89.10;;;;;;4935786;29;20987;-74
2022/09/08 06:13:40;;;;;;;0.70;0.60;;;18.30;89.60;;;;;;4936070;29;20873;-74
2022/09/08 06:16:08;;;;;;;0.70;0.60;;;18.30;89.00;;;;;;4935774;29;20944;-74
2022/09/08 06:18:36;;;;;;;0.70;0.60;;;18.30;88.10;;;;;;4936040;29;20448;-75
2022/09/08 06:21:06;;;;;;;0.70;0.53;;;18.20;88.00;;;;;;4938545;29;20467;-75
2022/09/08 06:23:33;;;;;;;0.70;0.50;;;18.20;87.10;;;;;;4940098;29;20459;-75
2022/09/08 06:26:25;;;;;;;0.70;0.60;;;18.20;86.80;;;;;;4939853;29;20452;-75
2022/09/08 06:28:59;;;;;;;0.70;0.50;;;18.30;86.80;;;;;;4939671;29;20991;-74
2022/09/08 06:31:30;;;;;;;0.70;0.60;;;18.10;86.10;;;;;;4939726;29;20480;-75
2022/09/08 06:34:02;;;;;;;0.70;0.53;;;18.10;85.60;;;;;;4939690;29;20855;-75
2022/09/08 06:36:42;;;;;;;0.70;0.50;;;18.00;86.20;;;;;;4939689;29;20428;-75
2022/09/08 06:39:16;;;;;;;0.70;0.60;;;18.00;86.70;;;;;;4939624;29;20436;-75
2022/09/08 06:41:46;;;;;;;0.70;0.50;;;18.20;86.10;;;;;;4939489;29;20479;-75
2022/09/08 06:44:20;;;;;;;0.70;0.50;;;18.30;85.60;;;;;;4939536;29;20441;-75
2022/09/08 06:46:47;;;;;;;0.80;0.53;;;18.40;85.60;;;;;;4939524;29;20436;-75
2022/09/08 06:49:14;;;;;;;0.70;0.50;;;18.60;84.90;;;;;;4939402;29;20491;-75
2022/09/08 06:51:47;;;;;;;0.70;0.50;;;18.60;84.20;;;;;;4939317;29;20491;-75
2022/09/08 06:54:30;;;;;;;0.70;0.50;;;18.60;84.30;;;;;;4939081;29;20934;-75
2022/09/08 06:57:05;;;;;;;0.70;0.50;;;18.70;84.70;;;;;;4939332;29;20511;-75
2022/09/08 06:59:47;;;;;;;0.77;0.60;;;18.80;83.80;;;;;;4939231;29;20439;-74
2022/09/08 07:02:44;;;;;;;0.80;0.60;;;18.80;83.90;;;;;;4938824;29;20487;-75
2022/09/08 07:05:26;;;;;;;0.70;0.60;;;18.50;83.40;;;;;;4939182;29;20440;-75
2022/09/08 07:08:01;;;;;;;1.90;0.60;;;18.50;83.40;;;;;;4939302;29;20440;-74
2022/09/08 07:10:32;;;;;;;0.70;0.50;;;18.40;84.50;;;;;;4942279;29;20440;-75
2022/09/08 07:13:07;;;;;;;0.70;0.50;;;18.40;84.70;;;;;;4948147;29;20436;-75
2022/09/08 07:15:50;;;;;;;0.70;0.50;;;18.10;84.70;;;;;;4947401;29;20468;-75
2022/09/08 07:18:24;;;;;;;0.70;0.50;;;18.10;84.50;;;;;;4948091;29;20432;-75
2022/09/08 07:20:54;;;;;;;0.70;0.50;;;18.10;85.30;;;;;;4948078;29;20475;-75
2022/09/08 07:23:25;;;;;;;0.70;0.50;;;18.30;85.10;;;;;;4947567;29;20460;-74
2022/09/08 07:25:58;;;;;;;0.70;0.50;;;18.60;84.80;;;;;;4948016;29;20424;-76
2022/09/08 07:28:26;;;;;;;0.70;0.50;;;18.60;83.60;;;;;;4947554;29;20475;-75
2022/09/08 07:30:57;;;;;;;0.70;0.60;;;18.80;83.90;;;;;;4947418;29;20478;-75
2022/09/08 07:33:28;;;;;;;0.70;0.60;;;18.80;83.40;;;;;;4946833;29;20432;-75
2022/09/08 07:36:02;;;;;;;0.70;0.50;;;19.00;83.50;;;;;;4946478;29;20452;-75
2022/09/08 07:38:37;;;;;;;0.80;0.60;;;18.90;81.10;;;;;;4947258;29;20428;-74
2022/09/08 07:41:06;;;;;;;0.80;0.50;;;18.90;83.30;;;;;;4947541;29;20479;-75
2022/09/08 07:43:33;;;;;;;0.70;0.60;;;19.00;83.90;;;;;;4947469;29;20452;-75
2022/09/08 07:46:20;;;;;;;0.70;0.50;;;19.20;83.10;;;;;;4949416;29;20448;-75
2022/09/08 07:48:53;;;;;;;0.70;0.50;;;19.40;82.50;;;;;;4942287;29;20472;-75
2022/09/08 07:51:21;;;;;;;0.70;0.50;;;19.60;80.90;;;;;;4938259;29;20523;-75
2022/09/08 07:54:00;;;;;;;0.80;0.60;;;19.70;80.80;;;;;;4937968;29;20464;-75
2022/09/08 07:56:38;;;;;;;0.70;0.60;;;19.90;81.20;;;;;;4937960;29;20443;-75
2022/09/08 07:59:19;;;;;;;0.70;0.50;;;20.20;80.90;;;;;;4937927;29;20901;-75
2022/09/08 08:01:55;;;;;;;0.70;0.60;;;20.40;79.30;;;;;;4937988;29;20484;-75
2022/09/08 08:04:37;;;;;;;0.70;0.50;;;20.50;78.30;;;;;;4938093;29;20487;-75
2022/09/08 08:07:11;;;;;;;0.70;0.50;;;20.60;76.80;;;;;;4938010;29;20496;-75
2022/09/08 08:09:47;;;;;;;0.70;0.50;;;20.70;78.20;;;;;;4937620;29;20508;-75
2022/09/08 08:12:23;;;;;;;0.80;0.63;;;21.00;76.80;;;;;;4938603;29;20838;-76
2022/09/08 08:14:59;;;;;;;0.70;0.50;;;21.30;74.70;;;;;;4937937;29;20432;-76
2022/09/08 08:17:36;;;;;;;0.70;0.50;;;21.50;77.50;;;;;;4937888;29;20447;-76
2022/09/08 08:20:16;;;;;;;0.70;0.50;;;21.80;74.70;;;;;;4937755;29;20440;-76
2022/09/08 08:23:11;;;;;;;0.70;0.50;;;21.90;73.40;;;;;;4937654;29;20480;-76
2022/09/08 08:25:47;;;;;;;0.70;0.50;;;21.70;73.60;;;;;;4935788;29;21015;-76
2022/09/08 08:28:17;;;;;;;1.20;0.60;;;21.90;72.80;;;;;;4937560;29;20436;-76
2022/09/08 08:30:54;;;;;;;0.70;0.50;;;21.80;73.10;;;;;;4937642;29;20467;-76
2022/09/08 08:33:26;;;;;;;0.70;0.60;;;21.90;72.80;;;;;;4937646;29;20463;-75
2022/09/08 08:35:56;;;;;;;0.70;0.50;;;22.10;71.80;;;;;;4937554;29;20436;-76
2022/09/08 08:38:29;;;;;;;0.70;0.50;;;22.00;72.90;;;;;;4938382;29;20908;-76
2022/09/08 08:40:57;;;;;;;0.70;0.50;;;22.10;72.10;;;;;;4937418;29;20503;-76
2022/09/08 08:43:47;;;;;;;0.70;0.50;;;22.20;73.50;;;;;;4936273;29;20491;-76
2022/09/08 08:46:45;;;;;;;0.70;0.50;;;22.50;71.60;;;;;;4937121;29;20842;-76
2022/09/08 08:49:29;;;;;;;0.70;0.50;;;22.50;69.70;;;;;;4937238;29;20519;-76
2022/09/08 08:52:18;;;;;;;0.70;0.50;;;22.20;71.60;;;;;;4936886;29;20975;-76
2022/09/08 08:55:05;;;;;;;0.70;0.50;;;22.10;71.50;;;;;;4937190;29;20433;-76
2022/09/08 08:57:45;;;;;;;0.70;0.50;;;22.20;71.70;;;;;;4936876;29;20505;-75
2022/09/08 09:00:20;;;;;;;0.70;0.50;;;22.10;71.20;;;;;;4937063;29;20441;-76
2022/09/08 09:03:18;;;;;;;0.80;0.50;;;22.00;71.90;;;;;;4936604;29;20495;-76
2022/09/08 09:06:00;;;;;;;0.70;0.50;;;21.80;71.70;;;;;;4927381;29;20460;-75
2022/09/08 09:08:54;;;;;;;0.70;0.60;;;21.70;72.00;;;;;;4936879;29;20444;-75
2022/09/08 09:12:05;;;;;;;0.70;0.60;;;21.70;73.50;;;;;;4936798;29;20526;-76
2022/09/08 09:14:49;;;;;;;0.93;0.70;;;22.10;73.40;;;;;;4931907;29;20459;-75
2022/09/08 09:17:49;;;;;;;0.70;0.60;;;22.30;72.00;;;;;;4936820;29;20436;-75
2022/09/08 09:20:46;;;;;;;0.80;0.50;;;22.20;70.90;;;;;;4936775;29;20548;-75
2022/09/08 09:23:24;;;;;;;0.70;0.50;;;21.90;70.40;;;;;;4936671;29;20491;-76
2022/09/08 09:25:58;;;;;;;0.70;0.50;;;22.00;70.20;;;;;;4936623;29;20429;-75
2022/09/08 09:29:04;;;;;;;0.70;0.50;;;21.90;69.60;;;;;;4936192;29;20527;-75
2022/09/08 09:32:10;;;;;;;0.70;0.53;;;22.00;69.60;;;;;;4936380;29;20492;-75
2022/09/08 09:35:06;;;;;;;0.70;0.60;;;21.50;69.90;;;;;;4934135;29;20472;-76
2022/09/08 09:37:53;;;;;;;0.70;0.60;;;21.30;71.10;;;;;;4936267;29;20908;-74
2022/09/08 09:40:37;;;;;;;0.70;0.60;;;21.40;71.00;;;;;;4936295;29;20912;-74
2022/09/08 09:43:18;;;;;;;0.80;0.60;;;21.30;70.30;;;;;;4936543;29;20433;-74
2022/09/08 09:46:20;;;;;;;0.70;0.60;;;21.40;71.40;;;;;;4936776;29;20531;-73
2022/09/08 09:49:15;;;;;;;0.70;0.60;;;21.50;72.20;;;;;;4919644;29;20571;-74
2022/09/08 09:51:56;;;;;;;0.70;0.50;;;21.80;71.50;;;;;;4936490;29;20468;-74
2022/09/08 09:54:34;;;;;;;0.70;0.60;;;22.00;69.80;;;;;;4936179;29;20846;-76
2022/09/08 09:57:24;;;;;;;0.70;0.53;;;22.20;68.60;;;;;;4936428;29;20795;-76
2022/09/08 10:00:18;;;;;;;0.87;0.60;;;22.60;67.30;;;;;;4936392;29;20499;-73
2022/09/08 10:03:36;;;;;;;0.70;0.53;;;22.80;68.80;;;;;;4930294;29;20476;-74
2022/09/08 10:06:22;;;;;;;0.90;0.50;;;22.90;66.40;;;;;;4943793;29;21018;-74
2022/09/08 10:09:35;;;;;;;0.80;0.60;;;23.00;65.60;;;;;;4943506;29;20464;-74
2022/09/08 10:12:40;;;;;;;0.70;0.50;;;23.30;65.80;;;;;;4943497;29;20472;-74
2022/09/08 10:15:39;;;;;;;0.70;0.50;;;23.20;65.20;;;;;;4944350;29;20455;-75
2022/09/08 10:18:45;;;;;;;0.80;0.50;;;23.30;65.30;;;;;;4944076;29;20432;-74
2022/09/08 10:21:49;;;;;;;0.80;0.57;;;23.20;65.30;;;;;;4907742;29;20503;-74
2022/09/08 10:24:52;;;;;;;0.83;0.63;;;23.00;66.20;;;;;;4946956;29;20455;-74
2022/09/08 10:27:58;;;;;;;1.00;0.50;;;22.90;65.00;;;;;;4946870;29;20816;-74
2022/09/08 10:30:53;;;;;;;0.70;0.50;;;23.00;65.00;;;;;;4946137;29;20493;-75
2022/09/08 10:33:34;;;;;;;0.70;0.60;;;22.90;64.20;;;;;;4946084;29;20432;-74
2022/09/08 10:36:07;;;;;;;0.70;0.60;;;22.40;63.10;;;;;;4946651;29;20448;-74
2022/09/08 10:38:57;;;;;;;0.70;0.57;;;22.10;65.60;;;;;;4945459;29;20437;-75
2022/09/08 10:41:47;;;;;;;0.80;0.50;;;22.00;64.10;;;;;;4945617;29;20523;-74
2022/09/08 10:44:49;;;;;;;0.70;0.50;;;22.00;63.70;;;;;;4945807;29;20440;-75
2022/09/08 10:47:43;;;;;;;0.70;0.60;;;22.00;62.90;;;;;;4892764;29;20455;-75
2022/09/08 10:50:21;;;;;;;0.70;0.57;;;22.10;63.90;;;;;;4945638;29;20558;-73
2022/09/08 10:53:01;;;;;;;0.70;0.60;;;22.10;62.80;;;;;;4944618;29;20499;-75
2022/09/08 10:55:54;;;;;;;0.70;0.50;;;22.00;63.00;;;;;;4945344;29;20985;-74
2022/09/08 10:58:51;;;;;;;0.80;0.60;;;22.00;63.20;;;;;;4945103;29;20455;-74
2022/09/08 11:01:42;;;;;;;0.73;0.53;;;21.80;63.20;;;;;;4944210;29;20476;-73
2022/09/08 11:04:50;;;;;;;0.70;0.50;;;21.80;63.10;;;;;;4945567;29;20447;-75
2022/09/08 11:07:48;;;;;;;0.70;0.60;;;21.70;63.70;;;;;;4946038;29;20980;-75
2022/09/08 11:10:25;;;;;;;0.70;0.50;;;21.70;64.40;;;;;;4949110;29;20476;-75
2022/09/08 11:13:19;;;;;;;0.70;0.50;;;21.50;66.30;;;;;;4949226;29;20442;-75
2022/09/08 11:16:13;;;;;;;0.70;0.60;;;21.90;65.00;;;;;;4949685;29;20464;-74
2022/09/08 11:18:55;;;;;;;0.90;0.73;;;22.20;64.50;;;;;;4949241;29;20436;-75
2022/09/08 11:21:28;;;;;;;0.70;0.50;;;22.50;64.90;;;;;;4948655;29;20472;-73
2022/09/08 11:24:15;;;;;;;0.70;0.50;;;22.80;62.50;;;;;;4948892;29;20879;-73
2022/09/08 11:26:56;;;;;;;0.70;0.53;;;22.90;62.90;;;;;;4948583;29;20443;-75
2022/09/08 11:29:31;;;;;;;0.70;0.50;;;23.10;62.00;;;;;;4951234;29;20486;-75
2022/09/08 11:32:08;;;;;;;0.80;0.67;;;23.10;62.00;;;;;;4945344;29;20471;-75
2022/09/08 11:34:56;;;;;;;0.70;0.60;;;23.20;61.40;;;;;;4944536;29;20432;-76
2022/09/08 11:37:49;;;;;;;0.70;0.53;;;23.50;61.80;;;;;;4944657;29;20433;-76
2022/09/08 11:40:44;;;;;;;0.70;0.60;;;23.60;61.00;;;;;;4939517;29;20436;-74
2022/09/08 11:43:33;;;;;;;0.70;0.50;;;23.40;60.40;;;;;;4938447;29;20488;-75
2022/09/08 11:46:25;;;;;;;0.70;0.60;;;23.70;60.80;;;;;;4938523;29;20440;-75
2022/09/08 11:49:19;;;;;;;0.70;0.60;;;23.90;60.00;;;;;;4939211;29;20469;-76
2022/09/08 11:52:00;;;;;;;0.70;0.50;;;23.90;59.40;;;;;;4938250;29;20472;-75
2022/09/08 11:54:55;;;;;;;0.70;0.50;;;23.50;61.00;;;;;;4938338;29;20432;-75
2022/09/08 11:57:32;;;;;;;0.70;0.60;;;23.30;62.10;;;;;;4938306;29;20448;-74
2022/09/08 12:00:21;;;;;;;0.70;0.53;;;23.50;60.40;;;;;;4937769;29;20853;-75
2022/09/08 12:03:18;;;;;;;0.70;0.50;;;23.20;60.70;;;;;;4937907;29;20499;-74
2022/09/08 12:06:01;;;;;;;0.70;0.60;;;22.90;62.20;;;;;;4938326;29;20432;-74
2022/09/08 12:08:58;;;;;;;0.80;0.50;;;22.80;62.50;;;;;;4939856;29;20440;-75
2022/09/08 12:11:53;;;;;;;0.70;0.50;;;22.70;64.20;;;;;;4945657;29;20573;-74
2022/09/08 12:14:29;;;;;;;0.70;0.60;;;22.30;65.70;;;;;;4944676;29;20508;-76
2022/09/08 12:17:05;;;;;;;0.70;0.50;;;22.00;67.80;;;;;;4946363;29;20451;-75
2022/09/08 12:19:51;;;;;;;0.70;0.60;;;21.90;69.30;;;;;;4945066;29;20466;-76
2022/09/08 12:22:33;;;;;;;0.70;0.50;;;22.10;71.20;;;;;;4945253;29;20480;-74
2022/09/08 12:25:12;;;;;;;0.80;0.60;;;22.40;70.00;;;;;;4945061;29;20439;-74
2022/09/08 12:27:55;;;;;;;0.70;0.60;;;22.40;70.30;;;;;;4944365;29;20440;-75
2022/09/08 12:30:42;;;;;;;0.70;0.50;;;22.60;70.00;;;;;;4944683;29;20843;-75
2022/09/08 12:33:34;;;;;;;0.80;0.60;;;22.80;69.70;;;;;;4943965;29;20440;-75
2022/09/08 12:36:10;;;;;;;0.80;0.60;;;23.20;69.20;;;;;;4944626;29;20487;-74
2022/09/08 12:38:59;;;;;;;0.70;0.50;;;23.20;65.60;;;;;;4944911;29;20823;-75
2022/09/08 12:41:55;;;;;;;0.80;0.50;;;23.30;65.60;;;;;;4945923;29;20471;-73
2022/09/08 12:44:40;;;;;;;0.70;0.57;;;23.70;66.50;;;;;;4941403;29;20522;-74
2022/09/08 12:47:26;;;;;;;0.80;0.50;;;24.00;64.40;;;;;;4943822;29;20455;-75
2022/09/08 12:50:31;;;;;;;0.70;0.60;;;24.10;62.00;;;;;;4943684;29;20471;-74
2022/09/08 12:53:34;;;;;;;0.70;0.53;;;24.40;60.40;;;;;;4885566;29;20518;-74
2022/09/08 12:56:06;;;;;;;0.77;0.57;;;24.70;60.10;;;;;;4943576;29;20974;-74
2022/09/08 12:58:44;;;;;;;0.70;0.50;;;24.50;59.00;;;;;;4943861;29;20436;-75
2022/09/08 13:01:18;;;;;;;0.70;0.60;;;24.80;60.20;;;;;;4945059;29;20479;-74
2022/09/08 13:03:46;;;;;;;0.70;0.50;;;25.20;60.20;;;;;;4942961;29;20432;-75
2022/09/08 13:06:46;;;;;;;0.70;0.70;;;24.80;57.40;;;;;;4943788;29;20499;-74
2022/09/08 13:09:23;;;;;;;0.70;0.60;;;24.40;58.00;;;;;;4934355;29;20460;-74
2022/09/08 13:12:21;;;;;;;0.80;0.60;;;24.30;57.90;;;;;;4936706;29;20523;-74
2022/09/08 13:15:13;;;;;;;1.00;0.50;;;24.50;58.80;;;;;;4936812;29;20484;-75
2022/09/08 13:17:47;;;;;;;0.70;0.60;;;24.70;57.20;;;;;;4939609;29;20440;-75
2022/09/08 13:20:21;;;;;;;0.70;0.60;;;24.80;58.00;;;;;;4943406;29;20503;-77
2022/09/08 13:23:00;;;;;;;0.70;0.50;;;24.80;57.60;;;;;;4943509;29;20992;-74
2022/09/08 13:25:34;;;;;;;0.70;0.57;;;24.80;56.70;;;;;;4944496;29;20436;-76
2022/09/08 13:28:24;;;;;;;0.80;0.70;;;24.60;56.80;;;;;;4943965;29;20441;-74
2022/09/08 13:31:01;;;;;;;0.80;0.70;;;24.30;57.00;;;;;;4943470;29;20492;-74
2022/09/08 13:33:51;;;;;;;0.93;0.60;;;24.30;57.20;;;;;;4946596;29;20443;-75
2022/09/08 13:36:48;;;;;;;0.87;0.60;;;24.20;57.80;;;;;;4943869;29;20433;-76
2022/09/08 13:39:32;;;;;;;0.70;0.50;;;24.50;57.90;;;;;;4938377;29;20440;-75
2022/09/08 13:42:17;;;;;;;0.70;0.50;;;24.40;58.50;;;;;;4936249;29;21031;-74
2022/09/08 13:45:06;;;;;;;0.70;0.50;;;24.70;58.00;;;;;;4936095;29;20869;-75
2022/09/08 13:48:00;;;;;;;0.80;0.60;;;24.90;57.10;;;;;;4924358;29;20463;-74
2022/09/08 13:51:10;;;;;;;0.70;0.60;;;25.10;57.00;;;;;;4936574;29;20472;-74
2022/09/08 13:53:58;;;;;;;0.70;0.60;;;24.80;57.50;;;;;;4935916;29;20909;-75
2022/09/08 13:56:40;;;;;;;0.70;0.60;;;24.60;56.90;;;;;;4935889;29;20889;-75
2022/09/08 13:59:20;;;;;;;0.70;0.50;;;24.50;57.30;;;;;;4936139;29;20491;-75
2022/09/08 14:01:49;;;;;;;0.70;0.50;;;24.70;58.40;;;;;;4935681;29;20483;-74
2022/09/08 14:04:26;;;;;;;0.70;0.60;;;25.20;57.60;;;;;;4936090;29;20451;-74
2022/09/08 14:07:01;;;;;;;0.70;0.60;;;25.00;54.90;;;;;;4936185;29;20432;-74
2022/09/08 14:09:30;;;;;;;0.80;0.60;;;24.90;54.70;;;;;;4936142;29;20499;-74
2022/09/08 14:12:20;;;;;;;0.70;0.60;;;24.70;55.30;;;;;;4935694;29;21043;-74
2022/09/08 14:15:15;;;;;;;0.80;0.70;;;24.40;56.70;;;;;;4935732;29;20908;-75
2022/09/08 14:17:57;;;;;;;0.70;0.60;;;24.50;56.40;;;;;;4923659;29;20466;-73
2022/09/08 14:20:30;;;;;;;0.70;0.50;;;24.70;56.80;;;;;;4935732;29;20800;-74
2022/09/08 14:23:05;;;;;;;0.70;0.50;;;24.90;55.40;;;;;;4935705;29;20882;-75
2022/09/08 14:25:34;;;;;;;0.70;0.60;;;25.50;55.50;;;;;;4936184;29;20443;-74
2022/09/08 14:28:16;;;;;;;0.80;0.60;;;26.00;53.80;;;;;;4936228;29;20475;-74
2022/09/08 14:31:03;;;;;;;0.70;0.60;;;26.60;53.60;;;;;;4935708;29;20968;-74
2022/09/08 14:33:33;;;;;;;0.90;0.53;;;26.60;51.50;;;;;;4935931;29;20436;-74
2022/09/08 14:36:19;;;;;;;0.70;0.50;;;26.20;52.60;;;;;;4935563;29;20464;-73
2022/09/08 14:39:08;;;;;;;0.70;0.50;;;25.90;53.50;;;;;;4935887;29;20436;-75
2022/09/08 14:41:41;;;;;;;1.20;0.60;;;25.70;53.90;;;;;;4923753;29;20480;-73
2022/09/08 14:44:34;;;;;;;0.70;0.60;;;25.50;54.10;;;;;;4939604;29;20436;-74
2022/09/08 14:47:05;;;;;;;0.70;0.60;;;25.30;54.20;;;;;;4939600;29;20440;-73
2022/09/08 14:49:54;;;;;;;0.70;0.57;;;24.70;55.10;;;;;;4941682;29;20904;-73
2022/09/08 14:52:39;;;;;;;1.00;0.60;;;25.00;55.20;;;;;;4932568;29;20859;-71
2022/09/08 14:55:16;;;;;;;0.70;0.53;;;25.80;54.70;;;;;;4944102;29;20451;-74
2022/09/08 14:57:45;;;;;;;0.90;0.70;;;26.10;53.90;;;;;;4945441;29;20432;-76
2022/09/08 15:00:24;;;;;;;0.70;0.50;;;26.70;52.40;;;;;;4944541;29;20455;-76
2022/09/08 15:02:55;;;;;;;0.80;0.70;;;27.90;49.50;;;;;;4945805;29;20559;-75
2022/09/08 15:05:31;;;;;;;0.70;0.60;;;29.10;47.40;;;;;;4944633;29;20447;-75
2022/09/08 15:08:03;;;;;;;0.80;0.60;;;29.90;45.70;;;;;;4944458;29;20483;-74
2022/09/08 15:10:38;;;;;;;0.70;0.60;;;30.50;46.20;;;;;;4944840;29;20540;-75
2022/09/08 15:13:15;;;;;;;0.70;0.50;;;31.50;43.50;;;;;;4940718;29;20432;-74
2022/09/08 15:15:44;;;;;;;0.90;0.70;;;31.80;43.30;;;;;;4940632;29;20530;-73
2022/09/08 15:18:28;;;;;;;0.70;0.50;;;32.00;42.70;;;;;;4939517;29;20452;-74
2022/09/08 15:21:17;;;;;;;0.70;0.50;;;32.00;42.30;;;;;;4947685;29;20479;-73
2022/09/08 15:23:49;;;;;;;0.70;0.50;;;31.70;42.20;;;;;;4949163;29;20806;-74
2022/09/08 15:26:39;;;;;;;0.80;0.60;;;30.60;44.10;;;;;;4944826;29;20435;-73
2022/09/08 15:29:44;;;;;;;0.80;0.60;;;30.10;44.80;;;;;;4939885;29;20437;-75
2022/09/08 15:32:24;;;;;;;0.70;0.53;;;29.20;45.50;;;;;;4910765;29;20992;-74
2022/09/08 15:35:09;;;;;;;0.70;0.50;;;28.70;47.80;;;;;;4940610;29;20916;-75
2022/09/08 15:37:48;;;;;;;0.80;0.60;;;28.20;48.30;;;;;;4940902;29;20436;-74
2022/09/08 15:40:18;;;;;;;0.70;0.70;;;27.30;49.50;;;;;;4940574;29;20440;-74
2022/09/08 15:42:53;;;;;;;0.90;0.67;;;26.80;50.30;;;;;;4939717;29;20503;-72
2022/09/08 15:45:55;;;;;;;0.80;0.63;;;26.50;51.20;;;;;;4939936;29;20475;-74
2022/09/08 15:48:35;;;;;;;0.73;0.63;;;26.10;51.60;;;;;;4939022;29;20857;-73
2022/09/08 15:51:15;;;;;;;0.70;0.60;;;25.90;52.30;;;;;;4939202;29;20551;-73
2022/09/08 15:53:59;;;;;;;0.80;0.60;;;25.60;53.40;;;;;;4938632;29;20447;-74
2022/09/08 15:56:53;;;;;;;0.80;0.60;;;25.20;53.80;;;;;;4939449;29;20496;-75
2022/09/08 15:59:36;;;;;;;0.70;0.50;;;25.10;54.60;;;;;;4938839;29;20447;-73
2022/09/08 16:02:09;;;;;;;0.80;0.70;;;24.90;56.20;;;;;;4938244;29;20479;-73
2022/09/08 16:04:49;;;;;;;0.80;0.63;;;24.60;55.90;;;;;;4938858;29;20566;-76
2022/09/08 16:07:26;;;;;;;0.70;0.60;;;24.50;56.40;;;;;;4938919;29;20451;-73
2022/09/08 16:10:03;;;;;;;0.70;0.60;;;24.40;55.80;;;;;;4938696;29;20468;-73
2022/09/08 16:12:39;;;;;;;0.80;0.60;;;24.40;56.00;;;;;;4938542;29;20491;-73
2022/09/08 16:15:17;;;;;;;0.80;0.60;;;24.10;56.10;;;;;;4938523;29;20451;-73
2022/09/08 16:18:06;;;;;;;0.83;0.60;;;24.10;56.70;;;;;;4937689;29;20440;-74
2022/09/08 16:20:33;;;;;;;0.70;0.60;;;23.90;57.50;;;;;;4937689;29;20916;-74
2022/09/08 16:23:18;;;;;;;0.80;0.60;;;23.70;56.60;;;;;;4937559;29;20963;-74
2022/09/08 16:25:51;;;;;;;0.90;0.60;;;23.60;57.40;;;;;;4937731;29;20528;-74
2022/09/08 16:28:29;;;;;;;0.70;0.53;;;23.70;57.70;;;;;;4937690;29;20441;-74
2022/09/08 16:31:12;;;;;;;0.70;0.60;;;23.50;57.60;;;;;;4937527;29;20491;-74
2022/09/08 16:33:54;;;;;;;1.00;0.60;;;23.50;57.80;;;;;;4937602;29;20436;-74
2022/09/08 16:36:24;;;;;;;0.70;0.60;;;23.50;57.50;;;;;;4937276;29;20985;-74
2022/09/08 16:38:52;;;;;;;0.90;0.60;;;23.50;57.20;;;;;;4937511;29;20477;-74
2022/09/08 16:41:33;;;;;;;0.80;0.60;;;23.50;56.60;;;;;;4937417;29;20475;-74
2022/09/08 16:44:09;;;;;;;0.80;0.50;;;23.50;56.80;;;;;;4937154;29;20908;-74
2022/09/08 16:46:39;;;;;;;0.70;0.60;;;23.60;56.40;;;;;;4937428;29;20490;-74
2022/09/08 16:49:21;;;;;;;0.80;0.67;;;23.60;56.70;;;;;;4937330;29;20464;-74